Página principal
METAR-TAF:

METAR-TAF

Aeroportos :

Aeroporto Internacional de Odessa

Odessa, Ucrânia

latitude: 46-26N, longitude: 030-46E, altura: 42 m

Observação actual do tempo

O boletim foi feito há 32 minutos, às 12:00 UTC
Vento 10 kt de este, variando entre nordeste e este
Temperatura 20°C
Humidade 53%
Pressão 1019 hPa
Visibilidade 10 km ou mais
sem nuvens abaixo de 1500 metros e sem cumulonimbus

METAR: UKOO 181200Z 08005MPS 040V100 CAVOK 20/10 Q1019 R16/090060 NOSIG

Hora: 15:32 (12:32 UTC)

Previsão

O boletim foi feito há 1 hora e 28 minutos, às 11:04 UTC
Previsão válida de 18 às 12 UTC a 19 às 12 UTC
Vento 12 kt de este com rajadas de 23 kt
Visibilidade: 6000 m
Nuvens dispersasa uma altura de 700 ft
Tornando-se
de 18 às 16 UTC a 18 às 17 UTC
Vento 6 kt de nor-nordeste
Visibilidade: 2100 m
neblina, fumo

TAF: UKOO 181104Z 1812/1912 08006G12MPS 6000 SCT007 BECMG 1816/1817 03003MPS 2100 BR FU

Observações e previsões do tempo de mais de 4000 aeroportos (mensagens METAR e TAF).

As estações disponíveis são os pontos amarelos e vermelhos sobre o mapa.

Mova o rato sobre o mapa para ver o nome da estação.

Depois clique no ponto para visualizar as observações e previsões meteorológicas.

Para alterar o mapa : clique nos botões verdes com uma cruz preta para aumentar o zoom; no botão verde com uma pitada de zoom; ou nas setas verdes para mapas adjacentes.


METAR-TAF: